Time;durP1;ratioP1;P1;durP2;ratioP2;P2;SDS_P1;SDS_P2;PMS_P1;PMS_P2;Temp;Humidity;BMP_temperature;BMP_pressure;BME280_temperature;BME280_humidity;BME280_pressure;Samples;Min_cycle;Max_cycle;Signal;HPM_P1;HPM_P2
2023/06/06 00:00:22;;;;;;;6.38;2.17;;;;;;;;;;21008452;28;20493;-61
2023/06/06 00:10:23;;;;;;;4.53;1.95;;;;;;;;;;21007674;28;20041;-62
2023/06/06 00:20:25;;;;;;;4.03;2.10;;;;;;;;;;21006785;28;20049;-62
2023/06/06 00:30:26;;;;;;;3.47;1.90;;;;;;;;;;21004888;28;20099;-62
2023/06/06 00:40:27;;;;;;;3.40;2.00;;;;;;;;;;21004023;28;20128;-60
2023/06/06 00:50:30;;;;;;;3.40;1.88;;;;;;;;;;21004141;28;20036;-62
2023/06/06 01:00:35;;;;;;;2.53;1.67;;;;;;;;;;21003496;28;20386;-61
2023/06/06 01:10:36;;;;;;;3.10;1.70;;;;;;;;;;21002770;28;20045;-61
2023/06/06 01:20:37;;;;;;;4.03;2.63;;;;;;;;;;21000618;28;20041;-61
2023/06/06 01:30:38;;;;;;;3.15;1.90;;;;;;;;;;21000183;28;20521;-62
2023/06/06 01:40:40;;;;;;;4.40;2.47;;;;;;;;;;21000400;28;20378;-62
2023/06/06 01:50:42;;;;;;;3.50;1.58;;;;;;;;;;20999577;28;20110;-61
2023/06/06 02:00:43;;;;;;;2.95;1.83;;;;;;;;;;20996850;28;20047;-61
2023/06/06 02:10:44;;;;;;;3.40;1.80;;;;;;;;;;20998375;28;20090;-62
2023/06/06 02:20:45;;;;;;;3.35;2.05;;;;;;;;;;20997553;28;20493;-61
2023/06/06 02:30:47;;;;;;;4.97;2.38;;;;;;;;;;20995737;28;20139;-61
2023/06/06 02:40:48;;;;;;;5.72;2.70;;;;;;;;;;20995348;28;20048;-62
2023/06/06 02:50:50;;;;;;;5.82;2.95;;;;;;;;;;20995080;28;20041;-61
2023/06/06 03:00:51;;;;;;;4.95;2.88;;;;;;;;;;20996075;28;20076;-62
2023/06/06 03:10:53;;;;;;;4.25;2.50;;;;;;;;;;20995760;28;20048;-61
2023/06/06 03:20:54;;;;;;;3.17;1.63;;;;;;;;;;21011442;28;20127;-62
2023/06/06 03:30:55;;;;;;;4.38;2.53;;;;;;;;;;21009997;28;20053;-61
2023/06/06 03:40:56;;;;;;;3.47;1.80;;;;;;;;;;21009780;28;20051;-61
2023/06/06 03:50:57;;;;;;;2.88;1.80;;;;;;;;;;21008019;28;20055;-61
2023/06/06 04:00:58;;;;;;;2.40;1.50;;;;;;;;;;21008551;28;20090;-62
2023/06/06 04:11:00;;;;;;;4.18;1.50;;;;;;;;;;21007924;28;20041;-62
2023/06/06 04:21:01;;;;;;;4.32;1.48;;;;;;;;;;21006854;28;20474;-61
2023/06/06 04:31:07;;;;;;;5.78;1.90;;;;;;;;;;21004355;28;20085;-61
2023/06/06 04:41:08;;;;;;;6.47;2.67;;;;;;;;;;21005309;28;20503;-61
2023/06/06 04:51:09;;;;;;;5.63;3.88;;;;;;;;;;21004532;28;20045;-65
2023/06/06 05:01:12;;;;;;;6.50;4.18;;;;;;;;;;21003801;28;20054;-65
2023/06/06 05:11:14;;;;;;;6.45;3.30;;;;;;;;;;21002505;28;20052;-65
2023/06/06 05:21:15;;;;;;;7.72;3.55;;;;;;;;;;21001891;28;20105;-64
2023/06/06 05:31:20;;;;;;;5.45;3.42;;;;;;;;;;21000147;28;20084;-65
2023/06/06 05:41:22;;;;;;;6.82;3.72;;;;;;;;;;20999695;28;20052;-65
2023/06/06 05:51:23;;;;;;;8.77;3.60;;;;;;;;;;20999827;28;20048;-64
2023/06/06 06:01:24;;;;;;;7.32;4.22;;;;;;;;;;20997260;28;20051;-65
2023/06/06 06:11:26;;;;;;;5.88;4.03;;;;;;;;;;20998517;28;20048;-65
2023/06/06 06:21:27;;;;;;;5.88;3.97;;;;;;;;;;20997430;28;20500;-64
2023/06/06 06:31:28;;;;;;;6.82;3.90;;;;;;;;;;20995719;28;20131;-65
2023/06/06 06:41:29;;;;;;;8.40;4.45;;;;;;;;;;20996374;28;20040;-65
2023/06/06 06:51:32;;;;;;;6.57;3.05;;;;;;;;;;20994731;28;20037;-63
2023/06/06 07:01:33;;;;;;;6.65;3.17;;;;;;;;;;20994526;28;20045;-64
2023/06/06 07:11:34;;;;;;;6.38;2.78;;;;;;;;;;20995360;28;20482;-64
2023/06/06 07:21:36;;;;;;;2.63;2.13;;;;;;;;;;20993758;28;20105;-64
2023/06/06 07:31:38;;;;;;;7.72;2.72;;;;;;;;;;20993433;28;20553;-64
2023/06/06 07:41:39;;;;;;;3.15;2.22;;;;;;;;;;20992806;28;20478;-64
2023/06/06 07:51:41;;;;;;;4.07;2.50;;;;;;;;;;20993462;28;20052;-64
2023/06/06 08:01:42;;;;;;;6.63;2.60;;;;;;;;;;20999275;28;20436;-64
2023/06/06 08:11:43;;;;;;;4.15;2.08;;;;;;;;;;21008044;28;20474;-64
2023/06/06 08:21:44;;;;;;;6.18;2.25;;;;;;;;;;21007318;28;20497;-64
2023/06/06 08:31:45;;;;;;;2.60;1.70;;;;;;;;;;21005814;28;20071;-63
2023/06/06 08:41:50;;;;;;;3.90;2.05;;;;;;;;;;21003882;28;20048;-63
2023/06/06 08:51:51;;;;;;;3.33;1.52;;;;;;;;;;21003527;28;20049;-64
2023/06/06 09:01:53;;;;;;;5.97;2.10;;;;;;;;;;21001716;28;20045;-64
2023/06/06 09:11:54;;;;;;;2.70;1.70;;;;;;;;;;21002452;28;20041;-64
2023/06/06 09:21:59;;;;;;;6.80;1.60;;;;;;;;;;21001580;28;20044;-65
2023/06/06 09:32:06;;;;;;;4.18;1.92;;;;;;;;;;21000306;28;20508;-62
2023/06/06 09:42:07;;;;;;;3.00;1.42;;;;;;;;;;20999898;28;20074;-66
2023/06/06 09:52:13;;;;;;;2.63;1.50;;;;;;;;;;20996930;28;20045;-65
2023/06/06 10:02:17;;;;;;;2.08;1.35;;;;;;;;;;20995527;28;20053;-67
2023/06/06 10:12:19;;;;;;;2.55;1.60;;;;;;;;;;20996070;28;20066;-67
2023/06/06 10:22:20;;;;;;;4.28;1.30;;;;;;;;;;20996213;28;20074;-66
2023/06/06 10:32:41;;;;;;;4.07;1.17;;;;;;;;;;20994853;28;20406;-67
2023/06/06 10:42:42;;;;;;;5.10;1.40;;;;;;;;;;20993208;28;20076;-70
2023/06/06 10:52:46;;;;;;;2.83;1.15;;;;;;;;;;20994525;28;20052;-66
2023/06/06 11:02:47;;;;;;;3.80;1.27;;;;;;;;;;20994637;28;20044;-71
2023/06/06 11:12:49;;;;;;;4.75;1.50;;;;;;;;;;20995898;28;20490;-68
2023/06/06 11:22:51;;;;;;;6.97;1.75;;;;;;;;;;20995457;28;20383;-64
2023/06/06 11:32:53;;;;;;;3.50;1.80;;;;;;;;;;20996717;28;20052;-72
2023/06/06 11:42:54;;;;;;;2.60;1.42;;;;;;;;;;21009575;28;20048;-64
2023/06/06 11:52:55;;;;;;;1.63;1.20;;;;;;;;;;21007180;28;20045;-67
2023/06/06 12:02:58;;;;;;;4.68;1.30;;;;;;;;;;21007410;28;20532;-63
2023/06/06 12:13:00;;;;;;;1.48;1.25;;;;;;;;;;21007235;28;20044;-63
2023/06/06 12:23:01;;;;;;;1.55;1.25;;;;;;;;;;21006473;28;20044;-63
2023/06/06 12:33:02;;;;;;;2.88;1.08;;;;;;;;;;21004216;28;20056;-63
2023/06/06 12:43:06;;;;;;;3.25;1.13;;;;;;;;;;21004016;28;20413;-63
2023/06/06 12:53:08;;;;;;;4.22;1.10;;;;;;;;;;21002061;28;20051;-63
2023/06/06 13:03:10;;;;;;;3.55;1.38;;;;;;;;;;21003084;28;20555;-63
2023/06/06 13:13:11;;;;;;;1.20;0.90;;;;;;;;;;21002623;28;20059;-63
2023/06/06 13:23:12;;;;;;;3.03;1.20;;;;;;;;;;21002202;28;20052;-64
2023/06/06 13:33:13;;;;;;;3.55;1.45;;;;;;;;;;21000762;28;20482;-64
2023/06/06 13:43:15;;;;;;;4.28;1.45;;;;;;;;;;20999094;28;20059;-63
2023/06/06 13:53:16;;;;;;;1.85;1.05;;;;;;;;;;21000209;28;20063;-62
2023/06/06 14:03:17;;;;;;;1.67;0.98;;;;;;;;;;20998556;28;20379;-64
2023/06/06 14:13:18;;;;;;;2.45;1.30;;;;;;;;;;20997546;28;20040;-63
2023/06/06 14:23:20;;;;;;;2.03;1.10;;;;;;;;;;20996994;28;20044;-64
2023/06/06 14:33:21;;;;;;;2.55;1.23;;;;;;;;;;20996143;28;20063;-63
2023/06/06 14:43:22;;;;;;;1.58;0.80;;;;;;;;;;20996905;28;20059;-64
2023/06/06 14:53:23;;;;;;;1.67;1.05;;;;;;;;;;20995229;28;20123;-63
2023/06/06 15:03:24;;;;;;;2.65;1.20;;;;;;;;;;20995309;28;20040;-64
2023/06/06 15:13:26;;;;;;;1.98;1.25;;;;;;;;;;21006557;28;20060;-64
2023/06/06 15:23:28;;;;;;;3.47;1.50;;;;;;;;;;21011409;28;20060;-64
2023/06/06 15:33:29;;;;;;;1.75;1.50;;;;;;;;;;21009006;28;20106;-61
2023/06/06 15:43:30;;;;;;;2.20;1.38;;;;;;;;;;21009107;28;20044;-62
2023/06/06 15:53:31;;;;;;;3.60;1.48;;;;;;;;;;21007306;28;20085;-61
2023/06/06 16:03:32;;;;;;;2.50;1.40;;;;;;;;;;21007901;28;20051;-63
2023/06/06 16:13:34;;;;;;;2.47;1.13;;;;;;;;;;21007689;28;20049;-59
2023/06/06 16:23:35;;;;;;;2.95;1.13;;;;;;;;;;21004361;28;20506;-60
2023/06/06 16:33:36;;;;;;;2.67;1.30;;;;;;;;;;21005970;28;20052;-61
2023/06/06 16:43:37;;;;;;;2.95;1.77;;;;;;;;;;21003704;28;20044;-60
2023/06/06 16:53:39;;;;;;;1.88;0.90;;;;;;;;;;20997096;28;20044;-66
2023/06/06 17:03:40;;;;;;;1.00;0.80;;;;;;;;;;20995832;28;20040;-64
2023/06/06 17:13:41;;;;;;;3.17;1.20;;;;;;;;;;21001730;28;20135;-64
2023/06/06 17:23:42;;;;;;;3.17;1.40;;;;;;;;;;21002136;28;20054;-68
2023/06/06 17:33:43;;;;;;;2.17;1.20;;;;;;;;;;21001429;28;20049;-60
2023/06/06 17:43:44;;;;;;;3.00;1.35;;;;;;;;;;21000225;28;20078;-66
2023/06/06 17:53:46;;;;;;;3.50;1.70;;;;;;;;;;20999899;28;20045;-66
2023/06/06 18:03:47;;;;;;;1.33;1.02;;;;;;;;;;20999144;28;20170;-66
2023/06/06 18:13:49;;;;;;;2.55;1.50;;;;;;;;;;20997494;28;20045;-66
2023/06/06 18:23:51;;;;;;;4.75;1.60;;;;;;;;;;20997903;28;20140;-59
2023/06/06 18:33:52;;;;;;;4.30;2.90;;;;;;;;;;20997793;28;20053;-61
2023/06/06 18:43:53;;;;;;;5.93;2.30;;;;;;;;;;20995986;28;20119;-62
2023/06/06 18:53:54;;;;;;;3.45;2.10;;;;;;;;;;20995508;28;20059;-61
2023/06/06 19:03:55;;;;;;;3.58;2.38;;;;;;;;;;20995749;28;20045;-62
2023/06/06 19:13:57;;;;;;;11.07;7.88;;;;;;;;;;20995357;28;20402;-60
2023/06/06 19:23:58;;;;;;;5.88;2.33;;;;;;;;;;20994309;28;20182;-65
2023/06/06 19:33:59;;;;;;;5.80;2.92;;;;;;;;;;20992486;28;20092;-64
2023/06/06 19:44:01;;;;;;;4.53;3.03;;;;;;;;;;20993669;28;20052;-65
2023/06/06 19:54:02;;;;;;;4.78;2.65;;;;;;;;;;20995244;28;20084;-64
2023/06/06 20:04:03;;;;;;;6.22;3.10;;;;;;;;;;21007954;28;20072;-64
2023/06/06 20:14:04;;;;;;;5.68;2.80;;;;;;;;;;21005495;28;20146;-65
2023/06/06 20:24:05;;;;;;;10.68;4.63;;;;;;;;;;21004401;28;20489;-65
2023/06/06 20:34:06;;;;;;;9.38;4.65;;;;;;;;;;21003810;28;20052;-65
2023/06/06 20:44:11;;;;;;;6.60;2.97;;;;;;;;;;21004186;28;20486;-64
2023/06/06 20:54:12;;;;;;;9.63;5.82;;;;;;;;;;21003039;28;20048;-65
2023/06/06 21:04:13;;;;;;;12.20;6.60;;;;;;;;;;21002976;28;20044;-64
2023/06/06 21:14:14;;;;;;;5.88;3.80;;;;;;;;;;21001631;28;20041;-65
2023/06/06 21:24:15;;;;;;;6.25;3.90;;;;;;;;;;20999663;28;20059;-65
2023/06/06 21:34:17;;;;;;;7.30;4.20;;;;;;;;;;20998773;28;20056;-64
2023/06/06 21:44:19;;;;;;;6.13;3.95;;;;;;;;;;20999469;28;20043;-64
2023/06/06 21:54:20;;;;;;;7.93;3.00;;;;;;;;;;20998244;28;20056;-65
2023/06/06 22:04:21;;;;;;;5.97;2.40;;;;;;;;;;20998125;28;20464;-64
2023/06/06 22:14:22;;;;;;;4.75;2.40;;;;;;;;;;20997486;28;20044;-64
2023/06/06 22:24:23;;;;;;;4.30;2.17;;;;;;;;;;20997446;28;20044;-66
2023/06/06 22:34:24;;;;;;;6.72;2.03;;;;;;;;;;20995476;28;20175;-64
2023/06/06 22:44:26;;;;;;;3.03;1.85;;;;;;;;;;20996240;28;20049;-65
2023/06/06 22:54:27;;;;;;;3.15;1.95;;;;;;;;;;20995432;28;20469;-64
2023/06/06 23:04:28;;;;;;;4.00;1.80;;;;;;;;;;20993827;28;20044;-64
2023/06/06 23:14:29;;;;;;;4.30;1.65;;;;;;;;;;20994487;28;20048;-64
2023/06/06 23:24:30;;;;;;;4.47;1.58;;;;;;;;;;20991823;28;20052;-64
2023/06/06 23:34:31;;;;;;;3.75;1.83;;;;;;;;;;21005276;28;20059;-65
2023/06/06 23:44:32;;;;;;;2.95;1.80;;;;;;;;;;21009190;28;20067;-64
2023/06/06 23:54:33;;;;;;;3.60;2.10;;;;;;;;;;21008227;28;20098;-63
